Jackson, Ohio
Current Conditions -  °F | °C
As of 10:55 PM on Sunday 23 Nov 2014 (Local Time) from KUNI Reporting Station
Overcast Overcast  
Wind Chill: 56°   Ceiling: 6000
Heat Index: 56°   Visibility: 10mi
Dew Point: 53°   Wind: 9mph
Humidity: 91%   Direction: 140°SE
Pressure: 29.43"   Gusts: 16mph
Location:  39.05°N, 82.64°W
Report Text: KUNI 240355Z AUTO 14008G14KT 10SM BKN060 OVC085 13/12 A2943 RMK AO2 P0004 T01310117 401850031
Loading
Personal Weather Stations






























Interactive Weather Map New forecast layout! Learn more

10-Day Weather Forecast

Advertisements
Track Severe Weather on mobile